• Join FlightAware (Why Join?)
  • Login
  • US Flag 
12:24PM EDT


 

Airport Tracker/Info


-or-


 

Live Flight TrackerFlight Track Log ✈ CSN6303 ✈ 24-Apr-2013 ✈ ZHHH / WUH - ZGSZ / SZX

Flight Track Log - Related Links

Times and Time Zones

All times are in EDT time to prevent confusion due to time zone crossing. See the CSN6303 flight status page for this flight to view local times or setup timezone preferences in your user account.

Time Position Orientation Groundspeed Altitude Reporting Facility
EDT Latitude Longitude Course Direction KTS MPH feet Rate Location/Type
05:56AM 30.6690 114.2021 183° South  Level Estimated
05:57AM 30.5543 114.1961 183° South  Level Estimated
05:58AM 30.4396 114.1901 183° South  Level Estimated
05:59AM 30.3248 114.1842 183° South  Level Estimated
06:00AM 30.2101 114.1782 183° South  Level Estimated
06:01AM 30.0954 114.1723 183° South  Level Estimated
06:02AM 29.9806 114.1664 183° South  Level Estimated
06:03AM 29.8659 114.1605 183° South  Level Estimated
06:04AM 29.7512 114.1546 183° South  Level Estimated
06:05AM 29.6365 114.1487 183° South  Level Estimated
06:06AM 29.5217 114.1429 183° South  Level Estimated
06:07AM 29.4070 114.1370 183° South  Level Estimated
06:08AM 29.2923 114.1312 183° South  Level Estimated
06:09AM 29.1775 114.1253 183° South  Level Estimated
06:10AM 29.0628 114.1195 183° South  Level Estimated
06:11AM 28.9481 114.1137 183° South  Level Estimated
06:12AM 28.8333 114.1079 183° South  Level Estimated
06:13AM 28.7186 114.1022 183° South  Level Estimated
06:14AM 28.6039 114.0964 183° South  Level Estimated
06:15AM 28.4891 114.0907 183° South  Level Estimated
06:16AM 28.3744 114.0849 183° South  Level Estimated
06:17AM 28.2596 114.0792 183° South  Level Estimated
06:18AM 28.1449 114.0735 183° South  Level Estimated
06:19AM 28.0302 114.0678 183° South  Level Estimated
06:20AM 27.9154 114.0621 183° South  Level Estimated
06:21AM 27.8007 114.0564 183° South  Level Estimated
06:22AM 27.6859 114.0508 183° South  Level Estimated
06:23AM 27.5712 114.0451 182° South  Level Estimated
06:24AM 27.4565 114.0395 182° South  Level Estimated
06:25AM 27.3417 114.0339 182° South  Level Estimated
06:26AM 27.2270 114.0282 182° South  Level Estimated
06:27AM 27.1122 114.0226 182° South  Level Estimated
06:28AM 26.9975 114.0171 182° South  Level Estimated
06:29AM 26.8828 114.0115 182° South  Level Estimated
06:30AM 26.7680 114.0059 182° South  Level Estimated
06:31AM 26.6533 114.0003 182° South  Level Estimated
06:32AM 26.5385 113.9948 182° South  Level Estimated
06:33AM 26.4238 113.9893 182° South  Level Estimated
06:34AM 26.3091 113.9837 182° South  Level Estimated
06:35AM 26.1943 113.9782 182° South  Level Estimated
06:36AM 26.0796 113.9727 182° South  Level Estimated
06:37AM 25.9648 113.9672 182° South  Level Estimated
06:38AM 25.8501 113.9617 182° South  Level Estimated
06:39AM 25.7354 113.9563 182° South  Level Estimated
06:40AM 25.6206 113.9508 182° South  Level Estimated
06:41AM 25.5059 113.9454 182° South  Level Estimated
06:42AM 25.3911 113.9399 182° South  Level Estimated
06:43AM 25.2764 113.9345 182° South  Level Estimated
06:44AM 25.1617 113.9291 182° South  Level Estimated
06:45AM 25.0469 113.9237 182° South  Level Estimated
06:46AM 24.9322 113.9183 182° South  Level Estimated
06:47AM 24.8174 113.9129 182° South  Level Estimated
06:48AM 24.7027 113.9075 182° South  Level Estimated
06:49AM 24.5880 113.9021 182° South  Level Estimated
06:50AM 24.4732 113.8968 182° South  Level Estimated
06:51AM 24.3585 113.8914 182° South  Level Estimated
06:52AM 24.2437 113.8861 182° South  Level Estimated
06:53AM 24.1290 113.8808 182° South  Level Estimated
06:54AM 24.0143 113.8754 182° South  Level Estimated
06:55AM 23.8995 113.8701 182° South  Level Estimated
06:56AM 23.7848 113.8648 182° South  Level Estimated
06:57AM 23.6700 113.8595 182° South  Level Estimated
06:58AM 23.5553 113.8542 182° South  Level Estimated
06:59AM 23.4405 113.8490 182° South  Level Estimated
07:00AM 23.3258 113.8437 182° South  Level Estimated
07:01AM 23.2111 113.8385 182° South  Level Estimated
07:02AM 23.0963 113.8332 182° South  Level Estimated
07:03AM 22.9816 113.8280 182° South  Level Estimated
07:04AM 22.8668 113.8227 182° South  Level Estimated
07:05AM 22.7521 113.8175 182° South  Level Estimated
07:06AM 22.6395 113.8124 182° South  Level Estimated
07:07AM 22.6395 113.8124 25° Northeast  Level Estimated
07:08AM 22.6395 113.8124 25° Northeast  Level Estimated
07:09AM 22.6395 113.8124 25° Northeast  Level Estimated
07:10AM 22.6395 113.8124 25° Northeast  Level Estimated
07:11AM 22.6395 113.8124 25° Northeast  Level Estimated
07:12AM 22.6395 113.8124 25° Northeast  Level Estimated
07:13AM 22.6395 113.8124 25° Northeast  Level Estimated
07:14AM 22.6395 113.8124 25° Northeast  Level Estimated
07:15AM 22.6395 113.8124 25° Northeast  Level Estimated
07:16AM 22.6395 113.8124 25° Northeast  Level Estimated
07:17AM 22.6395 113.8124 25° Northeast  Level Estimated
07:18AM 22.6395 113.8124 25° Northeast  Level Estimated
07:19AM 22.6395 113.8124 25° Northeast  Level Estimated
07:20AM 22.6395 113.8124 25° Northeast  Level Estimated
07:21AM 22.6395 113.8124 25° Northeast  Level Estimated